sensor_id;sensor_type;location;lat;lon;timestamp;P1;durP1;ratioP1;P2;durP2;ratioP2
40322;SDS011;26030;51.164;17.100;2023-02-28T00:02:16;28.50;;;17.90;;
40322;SDS011;26030;51.164;17.100;2023-02-28T00:07:23;20.70;;;15.40;;
40322;SDS011;26030;51.164;17.100;2023-02-28T00:12:27;23.60;;;16.20;;
40322;SDS011;26030;51.164;17.100;2023-02-28T00:17:32;25.90;;;16.40;;
40322;SDS011;26030;51.164;17.100;2023-02-28T00:22:41;21.20;;;15.30;;
40322;SDS011;26030;51.164;17.100;2023-02-28T00:27:46;22.90;;;15.60;;
40322;SDS011;26030;51.164;17.100;2023-02-28T00:32:50;20.70;;;15.20;;
40322;SDS011;26030;51.164;17.100;2023-02-28T00:37:54;21.50;;;15.30;;
40322;SDS011;26030;51.164;17.100;2023-02-28T00:42:59;19.10;;;14.70;;
40322;SDS011;26030;51.164;17.100;2023-02-28T00:48:03;24.00;;;16.30;;
40322;SDS011;26030;51.164;17.100;2023-02-28T00:53:07;21.00;;;14.60;;
40322;SDS011;26030;51.164;17.100;2023-02-28T00:58:12;21.60;;;15.20;;
40322;SDS011;26030;51.164;17.100;2023-02-28T01:03:18;18.80;;;13.70;;
40322;SDS011;26030;51.164;17.100;2023-02-28T01:08:22;19.00;;;14.40;;
40322;SDS011;26030;51.164;17.100;2023-02-28T01:13:26;19.10;;;14.60;;
40322;SDS011;26030;51.164;17.100;2023-02-28T01:18:30;22.70;;;14.40;;
40322;SDS011;26030;51.164;17.100;2023-02-28T01:23:35;22.00;;;14.60;;
40322;SDS011;26030;51.164;17.100;2023-02-28T01:28:40;20.20;;;14.70;;
40322;SDS011;26030;51.164;17.100;2023-02-28T01:33:44;16.80;;;13.50;;
40322;SDS011;26030;51.164;17.100;2023-02-28T01:38:49;19.80;;;14.60;;
40322;SDS011;26030;51.164;17.100;2023-02-28T01:43:57;18.30;;;14.70;;
40322;SDS011;26030;51.164;17.100;2023-02-28T01:49:06;18.20;;;13.50;;
40322;SDS011;26030;51.164;17.100;2023-02-28T01:54:15;18.00;;;13.50;;
40322;SDS011;26030;51.164;17.100;2023-02-28T01:59:25;17.80;;;14.00;;
40322;SDS011;26030;51.164;17.100;2023-02-28T02:04:38;17.50;;;13.40;;
40322;SDS011;26030;51.164;17.100;2023-02-28T02:09:43;17.70;;;13.50;;
40322;SDS011;26030;51.164;17.100;2023-02-28T02:14:56;17.50;;;14.40;;
40322;SDS011;26030;51.164;17.100;2023-02-28T02:26:06;18.00;;;13.40;;
40322;SDS011;26030;51.164;17.100;2023-02-28T02:31:33;18.40;;;12.30;;
40322;SDS011;26030;51.164;17.100;2023-02-28T02:36:48;16.30;;;13.20;;
40322;SDS011;26030;51.164;17.100;2023-02-28T02:41:59;17.40;;;13.00;;
40322;SDS011;26030;51.164;17.100;2023-02-28T02:47:09;16.40;;;13.00;;
40322;SDS011;26030;51.164;17.100;2023-02-28T02:52:16;15.20;;;12.40;;
40322;SDS011;26030;51.164;17.100;2023-02-28T02:57:31;16.10;;;12.80;;
40322;SDS011;26030;51.164;17.100;2023-02-28T03:02:38;16.00;;;12.80;;
40322;SDS011;26030;51.164;17.100;2023-02-28T03:07:43;17.10;;;12.30;;
40322;SDS011;26030;51.164;17.100;2023-02-28T03:13:20;18.40;;;13.60;;
40322;SDS011;26030;51.164;17.100;2023-02-28T03:18:32;14.80;;;12.00;;
40322;SDS011;26030;51.164;17.100;2023-02-28T03:24:51;15.00;;;12.20;;
40322;SDS011;26030;51.164;17.100;2023-02-28T03:29:37;14.60;;;11.80;;
40322;SDS011;26030;51.164;17.100;2023-02-28T03:40:20;16.90;;;12.00;;
40322;SDS011;26030;51.164;17.100;2023-02-28T03:45:29;14.60;;;12.30;;
40322;SDS011;26030;51.164;17.100;2023-02-28T03:50:40;15.10;;;11.10;;
40322;SDS011;26030;51.164;17.100;2023-02-28T03:55:50;13.30;;;11.20;;
40322;SDS011;26030;51.164;17.100;2023-02-28T04:06:18;15.10;;;11.50;;
40322;SDS011;26030;51.164;17.100;2023-02-28T04:11:32;14.70;;;11.90;;
40322;SDS011;26030;51.164;17.100;2023-02-28T04:16:40;13.90;;;11.80;;
40322;SDS011;26030;51.164;17.100;2023-02-28T04:21:47;15.00;;;12.00;;
40322;SDS011;26030;51.164;17.100;2023-02-28T04:26:54;12.50;;;10.50;;
40322;SDS011;26030;51.164;17.100;2023-02-28T04:31:59;14.10;;;10.20;;
40322;SDS011;26030;51.164;17.100;2023-02-28T04:37:05;14.10;;;11.30;;
40322;SDS011;26030;51.164;17.100;2023-02-28T04:42:16;12.50;;;10.50;;
40322;SDS011;26030;51.164;17.100;2023-02-28T04:47:20;13.30;;;11.00;;
40322;SDS011;26030;51.164;17.100;2023-02-28T04:52:24;12.70;;;10.20;;
40322;SDS011;26030;51.164;17.100;2023-02-28T04:57:28;11.30;;;10.10;;
40322;SDS011;26030;51.164;17.100;2023-02-28T05:02:35;13.00;;;10.40;;
40322;SDS011;26030;51.164;17.100;2023-02-28T05:07:40;11.30;;;10.00;;
40322;SDS011;26030;51.164;17.100;2023-02-28T05:12:44;12.20;;;10.20;;
40322;SDS011;26030;51.164;17.100;2023-02-28T05:17:48;11.00;;;9.90;;
40322;SDS011;26030;51.164;17.100;2023-02-28T05:22:52;11.30;;;10.20;;
40322;SDS011;26030;51.164;17.100;2023-02-28T05:27:56;13.00;;;9.50;;
40322;SDS011;26030;51.164;17.100;2023-02-28T05:33:00;14.00;;;10.70;;
40322;SDS011;26030;51.164;17.100;2023-02-28T05:38:08;12.70;;;9.60;;
40322;SDS011;26030;51.164;17.100;2023-02-28T05:43:12;10.40;;;9.20;;
40322;SDS011;26030;51.164;17.100;2023-02-28T05:48:16;12.00;;;9.30;;
40322;SDS011;26030;51.164;17.100;2023-02-28T05:53:22;12.30;;;9.40;;
40322;SDS011;26030;51.164;17.100;2023-02-28T05:58:26;10.90;;;9.30;;
40322;SDS011;26030;51.164;17.100;2023-02-28T06:03:34;12.10;;;10.30;;
40322;SDS011;26030;51.164;17.100;2023-02-28T06:08:39;11.00;;;9.80;;
40322;SDS011;26030;51.164;17.100;2023-02-28T06:13:43;13.30;;;9.60;;
40322;SDS011;26030;51.164;17.100;2023-02-28T06:18:47;10.50;;;9.50;;
40322;SDS011;26030;51.164;17.100;2023-02-28T06:23:52;14.30;;;10.40;;
40322;SDS011;26030;51.164;17.100;2023-02-28T06:28:56;11.50;;;9.90;;
40322;SDS011;26030;51.164;17.100;2023-02-28T06:34:00;12.40;;;9.90;;
40322;SDS011;26030;51.164;17.100;2023-02-28T06:39:05;14.00;;;10.80;;
40322;SDS011;26030;51.164;17.100;2023-02-28T06:44:16;11.90;;;10.30;;
40322;SDS011;26030;51.164;17.100;2023-02-28T06:49:21;14.70;;;10.10;;
40322;SDS011;26030;51.164;17.100;2023-02-28T06:54:25;12.10;;;10.50;;
40322;SDS011;26030;51.164;17.100;2023-02-28T06:59:30;13.00;;;9.80;;
40322;SDS011;26030;51.164;17.100;2023-02-28T07:04:34;12.20;;;10.00;;
40322;SDS011;26030;51.164;17.100;2023-02-28T07:09:39;14.10;;;9.50;;
40322;SDS011;26030;51.164;17.100;2023-02-28T07:14:43;16.90;;;9.60;;
40322;SDS011;26030;51.164;17.100;2023-02-28T07:19:47;13.60;;;9.20;;
40322;SDS011;26030;51.164;17.100;2023-02-28T07:24:51;15.70;;;10.20;;
40322;SDS011;26030;51.164;17.100;2023-02-28T07:29:56;19.80;;;10.00;;
40322;SDS011;26030;51.164;17.100;2023-02-28T07:35:00;20.00;;;9.70;;
40322;SDS011;26030;51.164;17.100;2023-02-28T07:40:06;11.00;;;8.60;;
40322;SDS011;26030;51.164;17.100;2023-02-28T07:45:16;18.10;;;9.60;;
40322;SDS011;26030;51.164;17.100;2023-02-28T07:50:21;16.20;;;9.30;;
40322;SDS011;26030;51.164;17.100;2023-02-28T07:55:28;10.50;;;8.40;;
40322;SDS011;26030;51.164;17.100;2023-02-28T08:00:32;11.90;;;8.70;;
40322;SDS011;26030;51.164;17.100;2023-02-28T08:05:39;17.40;;;9.70;;
40322;SDS011;26030;51.164;17.100;2023-02-28T08:10:43;14.50;;;8.30;;
40322;SDS011;26030;51.164;17.100;2023-02-28T08:15:47;15.30;;;8.50;;
40322;SDS011;26030;51.164;17.100;2023-02-28T08:20:52;11.90;;;8.20;;
40322;SDS011;26030;51.164;17.100;2023-02-28T08:25:56;11.00;;;8.30;;
40322;SDS011;26030;51.164;17.100;2023-02-28T08:31:00;12.50;;;8.50;;
40322;SDS011;26030;51.164;17.100;2023-02-28T08:36:06;13.10;;;9.20;;
40322;SDS011;26030;51.164;17.100;2023-02-28T08:41:11;13.80;;;8.40;;
40322;SDS011;26030;51.164;17.100;2023-02-28T08:46:15;14.50;;;7.90;;
40322;SDS011;26030;51.164;17.100;2023-02-28T08:51:20;9.40;;;7.20;;
40322;SDS011;26030;51.164;17.100;2023-02-28T09:01:35;12.10;;;7.80;;
40322;SDS011;26030;51.164;17.100;2023-02-28T09:06:40;9.40;;;7.20;;
40322;SDS011;26030;51.164;17.100;2023-02-28T09:11:44;13.40;;;7.60;;
40322;SDS011;26030;51.164;17.100;2023-02-28T09:16:48;9.40;;;7.00;;
40322;SDS011;26030;51.164;17.100;2023-02-28T09:21:52;10.40;;;7.20;;
40322;SDS011;26030;51.164;17.100;2023-02-28T09:26:59;9.10;;;7.10;;
40322;SDS011;26030;51.164;17.100;2023-02-28T09:32:07;9.50;;;7.50;;
40322;SDS011;26030;51.164;17.100;2023-02-28T09:37:12;7.40;;;6.50;;
40322;SDS011;26030;51.164;17.100;2023-02-28T09:42:24;7.80;;;6.00;;
40322;SDS011;26030;51.164;17.100;2023-02-28T09:47:48;8.00;;;6.80;;
40322;SDS011;26030;51.164;17.100;2023-02-28T09:52:55;7.40;;;6.30;;
40322;SDS011;26030;51.164;17.100;2023-02-28T09:58:00;9.20;;;6.60;;
40322;SDS011;26030;51.164;17.100;2023-02-28T10:03:24;8.70;;;6.60;;
40322;SDS011;26030;51.164;17.100;2023-02-28T10:08:36;6.90;;;6.00;;
40322;SDS011;26030;51.164;17.100;2023-02-28T10:24:52;6.90;;;5.50;;
40322;SDS011;26030;51.164;17.100;2023-02-28T10:30:01;5.70;;;4.90;;
40322;SDS011;26030;51.164;17.100;2023-02-28T10:35:26;6.50;;;5.50;;
40322;SDS011;26030;51.164;17.100;2023-02-28T10:40:34;8.90;;;5.40;;
40322;SDS011;26030;51.164;17.100;2023-02-28T10:45:39;9.30;;;5.90;;
40322;SDS011;26030;51.164;17.100;2023-02-28T10:50:56;9.80;;;5.40;;
40322;SDS011;26030;51.164;17.100;2023-02-28T11:01:18;6.10;;;5.50;;
40322;SDS011;26030;51.164;17.100;2023-02-28T11:06:26;6.70;;;5.30;;
40322;SDS011;26030;51.164;17.100;2023-02-28T11:11:43;18.90;;;5.60;;
40322;SDS011;26030;51.164;17.100;2023-02-28T11:16:48;7.90;;;5.40;;
40322;SDS011;26030;51.164;17.100;2023-02-28T11:22:01;6.40;;;5.40;;
40322;SDS011;26030;51.164;17.100;2023-02-28T11:27:05;7.20;;;5.40;;
40322;SDS011;26030;51.164;17.100;2023-02-28T11:32:19;6.20;;;5.20;;
40322;SDS011;26030;51.164;17.100;2023-02-28T11:37:23;7.50;;;5.40;;
40322;SDS011;26030;51.164;17.100;2023-02-28T11:48:44;6.20;;;5.40;;
40322;SDS011;26030;51.164;17.100;2023-02-28T11:53:58;6.70;;;5.00;;
40322;SDS011;26030;51.164;17.100;2023-02-28T11:59:33;6.30;;;4.80;;
40322;SDS011;26030;51.164;17.100;2023-02-28T12:10:09;5.60;;;5.10;;
40322;SDS011;26030;51.164;17.100;2023-02-28T12:21:14;7.10;;;4.90;;
40322;SDS011;26030;51.164;17.100;2023-02-28T12:26:40;6.00;;;5.40;;
40322;SDS011;26030;51.164;17.100;2023-02-28T12:32:13;6.10;;;5.50;;
40322;SDS011;26030;51.164;17.100;2023-02-28T12:37:27;6.60;;;5.90;;
40322;SDS011;26030;51.164;17.100;2023-02-28T12:43:04;5.80;;;5.30;;
40322;SDS011;26030;51.164;17.100;2023-02-28T12:48:15;7.20;;;5.40;;
40322;SDS011;26030;51.164;17.100;2023-02-28T12:53:35;5.90;;;5.40;;
40322;SDS011;26030;51.164;17.100;2023-02-28T12:58:47;6.10;;;5.00;;
40322;SDS011;26030;51.164;17.100;2023-02-28T13:09:18;6.70;;;4.90;;
40322;SDS011;26030;51.164;17.100;2023-02-28T13:14:29;5.50;;;5.00;;
40322;SDS011;26030;51.164;17.100;2023-02-28T13:19:36;6.50;;;5.30;;
40322;SDS011;26030;51.164;17.100;2023-02-28T13:24:46;5.40;;;4.80;;
40322;SDS011;26030;51.164;17.100;2023-02-28T13:29:53;6.40;;;5.50;;
40322;SDS011;26030;51.164;17.100;2023-02-28T13:45:33;7.80;;;5.60;;
40322;SDS011;26030;51.164;17.100;2023-02-28T13:50:43;6.10;;;5.30;;
40322;SDS011;26030;51.164;17.100;2023-02-28T14:11:37;5.30;;;4.80;;
40322;SDS011;26030;51.164;17.100;2023-02-28T14:16:45;5.90;;;4.50;;
40322;SDS011;26030;51.164;17.100;2023-02-28T14:27:48;5.60;;;4.90;;
40322;SDS011;26030;51.164;17.100;2023-02-28T14:43:57;7.30;;;4.70;;
40322;SDS011;26030;51.164;17.100;2023-02-28T14:49:03;5.80;;;5.30;;
40322;SDS011;26030;51.164;17.100;2023-02-28T14:54:14;5.50;;;4.90;;
40322;SDS011;26030;51.164;17.100;2023-02-28T14:59:34;5.90;;;5.40;;
40322;SDS011;26030;51.164;17.100;2023-02-28T15:04:38;4.90;;;4.40;;
40322;SDS011;26030;51.164;17.100;2023-02-28T15:09:42;5.50;;;4.80;;
40322;SDS011;26030;51.164;17.100;2023-02-28T15:14:46;5.40;;;4.90;;
40322;SDS011;26030;51.164;17.100;2023-02-28T15:19:56;5.40;;;4.80;;
40322;SDS011;26030;51.164;17.100;2023-02-28T15:25:02;5.20;;;4.70;;
40322;SDS011;26030;51.164;17.100;2023-02-28T15:30:15;5.10;;;4.70;;
40322;SDS011;26030;51.164;17.100;2023-02-28T15:35:29;5.30;;;4.60;;
40322;SDS011;26030;51.164;17.100;2023-02-28T15:40:41;5.60;;;5.10;;
40322;SDS011;26030;51.164;17.100;2023-02-28T16:01:37;5.80;;;5.30;;
40322;SDS011;26030;51.164;17.100;2023-02-28T16:12:02;6.20;;;5.10;;
40322;SDS011;26030;51.164;17.100;2023-02-28T16:17:21;8.90;;;6.20;;
40322;SDS011;26030;51.164;17.100;2023-02-28T16:22:26;5.80;;;5.10;;
40322;SDS011;26030;51.164;17.100;2023-02-28T16:27:33;8.50;;;6.50;;
40322;SDS011;26030;51.164;17.100;2023-02-28T16:32:39;8.70;;;6.60;;
40322;SDS011;26030;51.164;17.100;2023-02-28T16:37:44;11.30;;;7.80;;
40322;SDS011;26030;51.164;17.100;2023-02-28T16:42:52;13.50;;;9.10;;
40322;SDS011;26030;51.164;17.100;2023-02-28T16:47:59;15.30;;;10.20;;
40322;SDS011;26030;51.164;17.100;2023-02-28T16:53:04;17.00;;;10.90;;
40322;SDS011;26030;51.164;17.100;2023-02-28T16:58:14;16.50;;;11.80;;
40322;SDS011;26030;51.164;17.100;2023-02-28T17:03:25;31.70;;;14.20;;
40322;SDS011;26030;51.164;17.100;2023-02-28T17:08:39;28.40;;;15.00;;
40322;SDS011;26030;51.164;17.100;2023-02-28T17:13:46;28.80;;;15.90;;
40322;SDS011;26030;51.164;17.100;2023-02-28T17:18:53;39.70;;;22.10;;
40322;SDS011;26030;51.164;17.100;2023-02-28T17:23:59;39.10;;;21.90;;
40322;SDS011;26030;51.164;17.100;2023-02-28T17:29:09;35.90;;;22.60;;
40322;SDS011;26030;51.164;17.100;2023-02-28T17:34:17;48.20;;;25.70;;
40322;SDS011;26030;51.164;17.100;2023-02-28T17:39:23;54.80;;;26.20;;
40322;SDS011;26030;51.164;17.100;2023-02-28T17:44:29;44.10;;;24.10;;
40322;SDS011;26030;51.164;17.100;2023-02-28T17:49:34;44.40;;;23.20;;
40322;SDS011;26030;51.164;17.100;2023-02-28T17:54:39;39.50;;;23.00;;
40322;SDS011;26030;51.164;17.100;2023-02-28T17:59:44;39.40;;;23.40;;
40322;SDS011;26030;51.164;17.100;2023-02-28T18:04:49;37.90;;;24.00;;
40322;SDS011;26030;51.164;17.100;2023-02-28T18:09:54;35.40;;;23.10;;
40322;SDS011;26030;51.164;17.100;2023-02-28T18:15:00;41.00;;;23.20;;
40322;SDS011;26030;51.164;17.100;2023-02-28T18:20:07;37.20;;;22.60;;
40322;SDS011;26030;51.164;17.100;2023-02-28T18:25:14;36.90;;;22.30;;
40322;SDS011;26030;51.164;17.100;2023-02-28T18:30:28;35.00;;;21.90;;
40322;SDS011;26030;51.164;17.100;2023-02-28T18:35:41;31.90;;;20.60;;
40322;SDS011;26030;51.164;17.100;2023-02-28T18:40:54;35.10;;;21.20;;
40322;SDS011;26030;51.164;17.100;2023-02-28T18:46:09;31.00;;;20.40;;
40322;SDS011;26030;51.164;17.100;2023-02-28T18:51:21;34.50;;;21.70;;
40322;SDS011;26030;51.164;17.100;2023-02-28T19:01:33;36.00;;;21.00;;
40322;SDS011;26030;51.164;17.100;2023-02-28T19:06:40;34.50;;;20.50;;
40322;SDS011;26030;51.164;17.100;2023-02-28T19:11:48;34.50;;;21.20;;
40322;SDS011;26030;51.164;17.100;2023-02-28T19:16:59;32.70;;;20.80;;
40322;SDS011;26030;51.164;17.100;2023-02-28T19:22:05;28.60;;;21.10;;
40322;SDS011;26030;51.164;17.100;2023-02-28T19:27:11;35.50;;;22.90;;
40322;SDS011;26030;51.164;17.100;2023-02-28T19:32:18;33.70;;;21.60;;
40322;SDS011;26030;51.164;17.100;2023-02-28T19:37:24;30.50;;;21.00;;
40322;SDS011;26030;51.164;17.100;2023-02-28T19:42:33;32.00;;;21.60;;
40322;SDS011;26030;51.164;17.100;2023-02-28T19:47:43;36.50;;;21.40;;
40322;SDS011;26030;51.164;17.100;2023-02-28T19:52:53;36.00;;;22.70;;
40322;SDS011;26030;51.164;17.100;2023-02-28T19:58:03;35.20;;;22.20;;
40322;SDS011;26030;51.164;17.100;2023-02-28T20:03:09;34.60;;;21.50;;
40322;SDS011;26030;51.164;17.100;2023-02-28T20:08:20;35.20;;;22.70;;
40322;SDS011;26030;51.164;17.100;2023-02-28T20:13:27;34.90;;;21.20;;
40322;SDS011;26030;51.164;17.100;2023-02-28T20:18:33;33.00;;;22.20;;
40322;SDS011;26030;51.164;17.100;2023-02-28T20:23:40;29.40;;;20.60;;
40322;SDS011;26030;51.164;17.100;2023-02-28T20:28:46;29.80;;;20.40;;
40322;SDS011;26030;51.164;17.100;2023-02-28T20:33:52;30.70;;;20.70;;
40322;SDS011;26030;51.164;17.100;2023-02-28T20:38:58;31.40;;;21.40;;
40322;SDS011;26030;51.164;17.100;2023-02-28T20:44:05;32.80;;;21.90;;
40322;SDS011;26030;51.164;17.100;2023-02-28T20:49:11;30.60;;;21.50;;
40322;SDS011;26030;51.164;17.100;2023-02-28T20:54:19;32.00;;;19.90;;
40322;SDS011;26030;51.164;17.100;2023-02-28T20:59:27;30.10;;;19.30;;
40322;SDS011;26030;51.164;17.100;2023-02-28T21:04:33;37.00;;;20.40;;
40322;SDS011;26030;51.164;17.100;2023-02-28T21:09:40;31.90;;;18.80;;
40322;SDS011;26030;51.164;17.100;2023-02-28T21:14:44;32.70;;;19.10;;
40322;SDS011;26030;51.164;17.100;2023-02-28T21:19:49;33.10;;;19.50;;
40322;SDS011;26030;51.164;17.100;2023-02-28T21:24:53;34.00;;;19.00;;
40322;SDS011;26030;51.164;17.100;2023-02-28T21:29:57;28.60;;;19.20;;
40322;SDS011;26030;51.164;17.100;2023-02-28T21:35:02;23.00;;;17.70;;
40322;SDS011;26030;51.164;17.100;2023-02-28T21:40:07;29.30;;;18.60;;
40322;SDS011;26030;51.164;17.100;2023-02-28T21:45:11;29.70;;;18.60;;
40322;SDS011;26030;51.164;17.100;2023-02-28T21:50:16;26.30;;;18.10;;
40322;SDS011;26030;51.164;17.100;2023-02-28T21:55:20;24.40;;;17.80;;
40322;SDS011;26030;51.164;17.100;2023-02-28T22:00:28;29.60;;;19.30;;
40322;SDS011;26030;51.164;17.100;2023-02-28T22:05:34;29.50;;;19.10;;
40322;SDS011;26030;51.164;17.100;2023-02-28T22:10:39;26.10;;;18.50;;
40322;SDS011;26030;51.164;17.100;2023-02-28T22:15:47;27.40;;;17.70;;
40322;SDS011;26030;51.164;17.100;2023-02-28T22:20:57;25.50;;;17.70;;
40322;SDS011;26030;51.164;17.100;2023-02-28T22:26:07;26.30;;;17.60;;
40322;SDS011;26030;51.164;17.100;2023-02-28T22:31:17;23.20;;;17.70;;
40322;SDS011;26030;51.164;17.100;2023-02-28T22:36:22;25.00;;;17.00;;
40322;SDS011;26030;51.164;17.100;2023-02-28T22:41:27;23.40;;;17.80;;
40322;SDS011;26030;51.164;17.100;2023-02-28T22:46:32;25.50;;;17.20;;
40322;SDS011;26030;51.164;17.100;2023-02-28T22:51:37;26.00;;;18.50;;
40322;SDS011;26030;51.164;17.100;2023-02-28T22:56:41;26.40;;;18.30;;
40322;SDS011;26030;51.164;17.100;2023-02-28T23:01:45;23.40;;;18.30;;
40322;SDS011;26030;51.164;17.100;2023-02-28T23:06:49;26.60;;;18.90;;
40322;SDS011;26030;51.164;17.100;2023-02-28T23:11:54;25.50;;;18.10;;
40322;SDS011;26030;51.164;17.100;2023-02-28T23:16:59;26.00;;;18.00;;
40322;SDS011;26030;51.164;17.100;2023-02-28T23:22:04;26.80;;;18.40;;
40322;SDS011;26030;51.164;17.100;2023-02-28T23:27:10;23.70;;;18.70;;
40322;SDS011;26030;51.164;17.100;2023-02-28T23:32:14;25.20;;;19.00;;
40322;SDS011;26030;51.164;17.100;2023-02-28T23:37:18;23.20;;;19.10;;
40322;SDS011;26030;51.164;17.100;2023-02-28T23:42:23;30.20;;;19.50;;
40322;SDS011;26030;51.164;17.100;2023-02-28T23:47:27;26.90;;;18.30;;
40322;SDS011;26030;51.164;17.100;2023-02-28T23:52:33;26.00;;;18.40;;
40322;SDS011;26030;51.164;17.100;2023-02-28T23:57:38;25.60;;;17.60;;
